createdAt,value
2023-08-15T00:01:06.685Z,97.50
2023-08-15T00:03:34.912Z,97.60
2023-08-15T00:06:02.443Z,97.60
2023-08-15T00:08:29.863Z,97.60
2023-08-15T00:10:57.312Z,97.70
2023-08-15T00:13:24.761Z,97.70
2023-08-15T00:15:52.215Z,97.70
2023-08-15T00:18:19.685Z,97.70
2023-08-15T05:31:48.253Z,99.90
2023-08-15T05:34:15.802Z,99.90
2023-08-15T05:43:42.944Z,99.90
2023-08-15T05:46:10.406Z,99.90
2023-08-15T05:48:38.446Z,99.90
2023-08-15T05:51:05.893Z,99.90
2023-08-15T05:53:33.321Z,99.90
2023-08-15T05:56:00.789Z,99.90
2023-08-15T05:58:28.226Z,99.90
2023-08-15T06:00:56.339Z,99.90
2023-08-15T06:03:40.618Z,99.90
2023-08-15T06:06:11.352Z,99.90
2023-08-15T06:08:38.774Z,99.90
2023-08-15T06:11:07.213Z,99.90
2023-08-15T06:13:34.638Z,99.90
2023-08-15T06:16:02.070Z,99.90
2023-08-15T06:18:29.520Z,99.90
2023-08-15T06:20:57.093Z,99.90
2023-08-15T06:23:24.572Z,99.90
2023-08-15T06:25:52.045Z,99.90
2023-08-15T06:28:21.765Z,99.90
2023-08-15T06:30:49.268Z,99.90
2023-08-15T06:33:16.742Z,99.90
2023-08-15T06:35:44.260Z,99.90
2023-08-15T06:38:11.832Z,99.90
2023-08-15T06:40:40.885Z,99.90
2023-08-15T06:43:08.316Z,99.90
2023-08-15T06:45:39.048Z,99.90
2023-08-15T06:48:07.427Z,99.90
2023-08-15T06:50:35.005Z,99.90
2023-08-15T06:53:02.516Z,99.90
2023-08-15T06:55:30.020Z,99.90
2023-08-15T06:57:58.108Z,99.90
2023-08-15T07:00:25.626Z,99.90
2023-08-15T07:02:53.123Z,99.90
2023-08-15T07:05:20.615Z,99.90
2023-08-15T07:07:48.231Z,99.90
2023-08-15T07:10:15.824Z,99.90
2023-08-15T07:12:45.010Z,99.90
2023-08-15T07:15:13.257Z,99.90
2023-08-15T07:17:41.694Z,99.70
2023-08-15T07:20:11.703Z,99.70
2023-08-15T07:22:39.745Z,99.60
2023-08-15T07:25:08.303Z,99.70
2023-08-15T07:27:35.992Z,99.80
2023-08-15T07:30:03.842Z,99.50
2023-08-15T07:32:31.332Z,99.40
2023-08-15T07:34:58.813Z,99.40
2023-08-15T07:37:26.345Z,99.40
2023-08-15T07:40:10.743Z,99.30
2023-08-15T07:42:38.631Z,99.50
2023-08-15T07:45:08.519Z,99.40
2023-08-15T07:47:37.597Z,99.30
2023-08-15T07:50:28.590Z,99.50
2023-08-15T07:53:01.044Z,99.40
2023-08-15T07:55:33.234Z,99.40
2023-08-15T07:58:01.242Z,99.10
2023-08-15T08:00:28.990Z,99.10
2023-08-15T08:02:56.636Z,98.80
2023-08-15T08:05:24.283Z,95.40
2023-08-15T08:07:52.579Z,95.50
2023-08-15T08:10:20.189Z,96.20
2023-08-15T08:12:48.081Z,96.30
2023-08-15T08:15:15.935Z,95.80
2023-08-15T08:17:43.788Z,94.70
2023-08-15T08:20:14.663Z,93.90
2023-08-15T08:22:42.209Z,94.90
2023-08-15T08:25:22.893Z,94.70
2023-08-15T08:27:51.763Z,92.30
2023-08-15T08:30:22.601Z,91.90
2023-08-15T08:32:52.289Z,92.40
2023-08-15T08:35:20.116Z,89.00
2023-08-15T08:37:48.877Z,84.90
2023-08-15T08:40:18.674Z,85.30
2023-08-15T08:42:47.011Z,86.10
2023-08-15T08:45:15.948Z,85.70
2023-08-15T08:47:44.981Z,86.50
2023-08-15T08:50:13.403Z,86.40
2023-08-15T08:52:46.584Z,81.90
2023-08-15T08:55:13.980Z,77.40
2023-08-15T08:57:44.298Z,78.40
2023-08-15T09:00:16.108Z,77.10
2023-08-15T09:02:44.496Z,79.20
2023-08-15T09:05:13.328Z,80.10
2023-08-15T09:07:43.399Z,79.90
2023-08-15T09:10:11.255Z,79.60
2023-08-15T09:12:41.434Z,77.20
2023-08-15T09:15:11.404Z,79.30
2023-08-15T09:17:44.017Z,77.70
2023-08-15T09:20:19.693Z,79.80
2023-08-15T09:22:49.194Z,81.00
2023-08-15T09:25:21.597Z,82.50
2023-08-15T09:27:49.144Z,82.90
2023-08-15T09:30:18.675Z,82.50
2023-08-15T09:32:48.271Z,79.60
2023-08-15T09:35:19.832Z,80.20
2023-08-15T09:37:51.232Z,80.80
2023-08-15T09:40:27.062Z,80.60
2023-08-15T09:42:55.704Z,80.60
2023-08-15T09:45:24.113Z,81.70
2023-08-15T09:47:51.893Z,82.00
2023-08-15T09:50:19.497Z,81.80
2023-08-15T09:52:52.597Z,82.90
2023-08-15T09:55:21.200Z,82.40
2023-08-15T09:57:48.739Z,83.10
2023-08-15T10:00:17.916Z,82.80
2023-08-15T10:03:08.815Z,82.70
2023-08-15T10:05:40.593Z,83.10
2023-08-15T10:08:10.888Z,82.80
2023-08-15T10:10:39.547Z,81.90
2023-08-15T10:13:09.462Z,82.60
2023-08-15T10:15:37.911Z,82.40
2023-08-15T10:18:06.563Z,82.40
2023-08-15T10:20:38.558Z,82.60
2023-08-15T10:23:10.773Z,82.30
2023-08-15T10:25:42.682Z,82.60
2023-08-15T10:28:13.679Z,80.20
2023-08-15T10:30:52.371Z,81.50
2023-08-15T10:33:32.867Z,81.50
2023-08-15T10:36:00.234Z,81.30
2023-08-15T10:38:36.589Z,80.40
2023-08-15T10:41:19.007Z,81.60
2023-08-15T10:43:57.013Z,81.10
2023-08-15T10:46:31.763Z,81.00
2023-08-15T10:49:12.340Z,80.90
2023-08-15T10:51:42.673Z,80.80
2023-08-15T10:54:16.146Z,80.10
2023-08-15T10:56:44.782Z,79.00
2023-08-15T10:59:18.772Z,79.90
2023-08-15T11:01:48.520Z,80.40
2023-08-15T11:04:18.860Z,80.00
2023-08-15T11:06:50.598Z,80.20
2023-08-15T11:09:18.804Z,80.00
2023-08-15T11:11:47.216Z,80.10
2023-08-15T11:14:21.321Z,79.70
2023-08-15T11:16:50.756Z,80.70
2023-08-15T11:19:20.976Z,79.70
2023-08-15T11:21:49.656Z,80.50
2023-08-15T11:24:17.586Z,79.20
2023-08-15T11:26:45.744Z,78.90
2023-08-15T11:29:14.518Z,79.80
2023-08-15T11:31:43.109Z,78.90
2023-08-15T11:34:12.897Z,78.70
2023-08-15T11:36:41.208Z,78.00
2023-08-15T11:39:14.212Z,77.90
2023-08-15T11:41:42.808Z,77.90
2023-08-15T11:44:10.285Z,78.20
2023-08-15T11:49:19.763Z,76.60
2023-08-15T11:51:47.231Z,76.90
2023-08-15T11:54:14.724Z,77.30
2023-08-15T11:56:54.433Z,77.40
2023-08-15T11:59:23.771Z,77.30
2023-08-15T12:01:51.562Z,78.00
2023-08-15T12:04:19.869Z,77.40
2023-08-15T12:06:47.520Z,76.40
2023-08-15T12:09:15.173Z,74.50
2023-08-15T12:11:42.671Z,76.60
2023-08-15T12:14:22.403Z,74.60
2023-08-15T12:16:49.957Z,74.40
2023-08-15T12:19:21.758Z,75.50
2023-08-15T12:21:52.420Z,74.70
2023-08-15T12:24:19.965Z,74.50
2023-08-15T12:26:47.436Z,74.00
2023-08-15T12:29:17.234Z,73.50
2023-08-15T12:31:45.871Z,74.10
2023-08-15T12:34:13.539Z,72.50
2023-08-15T12:36:41.022Z,71.60
2023-08-15T12:39:09.112Z,72.20
2023-08-15T12:41:37.444Z,71.60
2023-08-15T12:44:05.221Z,70.70
2023-08-15T12:46:32.693Z,70.50
2023-08-15T12:49:03.404Z,70.00
2023-08-15T12:51:32.596Z,69.80
2023-08-15T12:54:00.293Z,70.30
2023-08-15T12:56:27.806Z,69.90
2023-08-15T12:58:55.728Z,68.30
2023-08-15T13:01:24.159Z,68.70
2023-08-15T13:03:52.744Z,70.20
2023-08-15T13:06:20.414Z,70.90
2023-08-15T13:08:47.883Z,69.80
2023-08-15T13:11:16.861Z,71.00
2023-08-15T13:13:44.421Z,70.00
2023-08-15T13:16:12.756Z,69.30
2023-08-15T13:18:40.273Z,68.40
2023-08-15T13:21:08.715Z,68.80
2023-08-15T13:23:36.214Z,69.50
2023-08-15T13:26:04.781Z,69.10
2023-08-15T13:28:32.220Z,69.50
2023-08-15T13:30:59.697Z,68.20
2023-08-15T13:33:27.271Z,68.70
2023-08-15T13:35:54.879Z,69.80
2023-08-15T13:38:22.334Z,68.30
2023-08-15T13:40:50.371Z,69.60
2023-08-15T13:43:17.852Z,69.70
2023-08-15T13:45:45.369Z,68.60
2023-08-15T13:48:12.903Z,67.90
2023-08-15T13:50:40.400Z,68.60
2023-08-15T13:53:07.869Z,68.00
2023-08-15T13:55:35.447Z,69.20
2023-08-15T13:58:03.387Z,69.50
2023-08-15T14:00:33.636Z,68.90
2023-08-15T14:03:01.329Z,69.10
2023-08-15T14:05:28.888Z,69.00
2023-08-15T14:07:56.437Z,68.80
2023-08-15T14:10:24.209Z,70.00
2023-08-15T14:12:51.670Z,68.90
2023-08-15T14:15:19.520Z,70.20
2023-08-15T14:17:47.013Z,68.30
2023-08-15T14:20:14.504Z,68.30
2023-08-15T14:22:42.005Z,69.30
2023-08-15T14:25:10.063Z,70.40
2023-08-15T14:27:37.566Z,70.20
2023-08-15T14:30:05.761Z,70.50
2023-08-15T14:32:33.445Z,69.80
2023-08-15T14:35:00.980Z,69.30
2023-08-15T14:37:29.229Z,68.50
2023-08-15T14:39:56.704Z,69.70
2023-08-15T14:42:24.627Z,69.00
2023-08-15T14:44:52.520Z,69.80
2023-08-15T14:47:33.791Z,68.40
2023-08-15T14:50:04.073Z,69.20
2023-08-15T14:52:32.119Z,70.10
2023-08-15T14:54:59.726Z,69.60
2023-08-15T14:57:27.266Z,70.30
2023-08-15T14:59:54.928Z,69.50
2023-08-15T15:02:25.002Z,69.40
2023-08-15T15:04:53.304Z,69.60
2023-08-15T15:07:20.753Z,69.00
2023-08-15T15:09:48.240Z,66.80
2023-08-15T15:12:15.697Z,66.60
2023-08-15T15:14:43.275Z,65.60
2023-08-15T15:17:10.740Z,64.20
2023-08-15T15:19:38.205Z,66.10
2023-08-15T15:22:07.592Z,65.70
2023-08-15T15:24:35.042Z,66.50
2023-08-15T15:27:03.667Z,66.00
2023-08-15T15:29:31.121Z,65.80
2023-08-15T15:31:58.648Z,65.80
2023-08-15T15:34:26.246Z,65.30
2023-08-15T15:36:53.690Z,65.40
2023-08-15T15:39:21.185Z,65.50
2023-08-15T15:41:48.700Z,64.20
2023-08-15T15:44:16.160Z,64.20
2023-08-15T15:46:54.323Z,64.60
2023-08-15T15:49:23.793Z,64.90
2023-08-15T15:51:52.330Z,64.70
2023-08-15T15:54:20.026Z,64.90
2023-08-15T15:56:47.651Z,64.90
2023-08-15T15:59:15.171Z,65.10
2023-08-15T16:01:42.884Z,65.40
2023-08-15T16:04:10.632Z,65.90
2023-08-15T16:06:38.243Z,66.00
2023-08-15T16:09:06.057Z,65.80
2023-08-15T16:11:33.831Z,66.60
2023-08-15T16:14:02.160Z,66.10
2023-08-15T16:16:29.757Z,66.00
2023-08-15T16:18:57.242Z,66.10
2023-08-15T16:21:24.757Z,66.50
2023-08-15T16:23:52.161Z,66.30
2023-08-15T16:26:19.675Z,66.40
2023-08-15T16:28:47.344Z,66.40
2023-08-15T16:31:14.859Z,67.00
2023-08-15T16:33:42.472Z,67.40
2023-08-15T16:36:10.227Z,67.50
2023-08-15T16:38:37.651Z,67.70
2023-08-15T16:41:05.305Z,67.40
2023-08-15T16:43:32.807Z,67.60
2023-08-15T16:46:00.388Z,67.90
2023-08-15T16:48:28.569Z,68.20
2023-08-15T16:50:56.092Z,67.80
2023-08-15T16:53:23.535Z,68.10
2023-08-15T16:55:51.036Z,67.90
2023-08-15T16:58:18.690Z,68.40
2023-08-15T17:00:46.240Z,68.20
2023-08-15T17:03:13.898Z,68.60
2023-08-15T17:05:41.457Z,69.00
2023-08-15T17:08:08.984Z,68.20
2023-08-15T17:10:36.429Z,68.80
2023-08-15T17:13:04.403Z,68.80
2023-08-15T17:15:33.673Z,69.30
2023-08-15T17:18:01.883Z,68.90
2023-08-15T17:20:29.414Z,69.70
2023-08-15T17:22:56.843Z,70.40
2023-08-15T17:25:24.294Z,69.60
2023-08-15T17:27:52.753Z,69.30
2023-08-15T17:30:20.659Z,70.20
2023-08-15T17:32:48.362Z,69.80
2023-08-15T17:35:15.833Z,69.80
2023-08-15T17:37:43.318Z,70.00
2023-08-15T17:40:11.632Z,70.10
2023-08-15T17:42:39.804Z,70.80
2023-08-15T17:45:08.358Z,71.40
2023-08-15T17:47:36.147Z,71.90
2023-08-15T17:50:03.725Z,72.70
2023-08-15T17:52:31.213Z,72.00
2023-08-15T17:54:58.715Z,72.00
2023-08-15T17:57:26.208Z,72.00
2023-08-15T17:59:53.616Z,72.50
2023-08-15T18:02:21.391Z,71.60
2023-08-15T18:04:49.153Z,71.50
2023-08-15T18:07:16.585Z,71.60
2023-08-15T18:09:44.940Z,72.40
2023-08-15T18:12:12.532Z,72.00
2023-08-15T18:14:42.190Z,72.80
2023-08-15T18:17:10.274Z,71.80
2023-08-15T18:19:39.261Z,72.60
2023-08-15T18:22:08.530Z,72.60
2023-08-15T18:24:36.642Z,72.70
2023-08-15T18:27:04.316Z,72.60
2023-08-15T18:29:31.913Z,73.20
2023-08-15T18:31:59.460Z,72.70
2023-08-15T18:34:26.989Z,72.90
2023-08-15T18:36:54.487Z,73.20
2023-08-15T18:39:22.385Z,73.40
2023-08-15T18:41:49.887Z,73.50
2023-08-15T18:44:17.470Z,73.70
2023-08-15T18:46:47.725Z,73.80
2023-08-15T18:49:15.431Z,73.90
2023-08-15T18:51:42.882Z,74.20
2023-08-15T18:54:10.345Z,74.40
2023-08-15T18:56:37.803Z,74.30
2023-08-15T18:59:05.354Z,74.80
2023-08-15T19:01:32.887Z,74.60
2023-08-15T19:04:00.426Z,75.40
2023-08-15T19:06:27.993Z,74.70
2023-08-15T19:08:55.515Z,75.10
2023-08-15T19:11:23.071Z,75.50
2023-08-15T19:13:50.473Z,75.40
2023-08-15T19:16:17.930Z,75.80
2023-08-15T19:18:45.431Z,75.90
2023-08-15T19:21:14.288Z,76.10
2023-08-15T19:23:41.770Z,76.20
2023-08-15T19:26:09.205Z,76.80
2023-08-15T19:28:37.065Z,77.40
2023-08-15T19:31:13.038Z,77.60
2023-08-15T19:33:40.522Z,77.30
2023-08-15T19:36:08.158Z,77.40
2023-08-15T19:38:35.595Z,77.60
2023-08-15T19:41:03.078Z,78.10
2023-08-15T19:43:30.501Z,78.30
2023-08-15T19:45:57.939Z,78.50
2023-08-15T19:48:25.439Z,79.30
2023-08-15T19:50:53.005Z,79.00
2023-08-15T19:53:20.494Z,79.20
2023-08-15T19:55:47.948Z,79.30
2023-08-15T19:58:15.956Z,79.60
2023-08-15T20:00:45.013Z,80.10
2023-08-15T20:03:12.534Z,80.50
2023-08-15T20:05:40.003Z,80.60
2023-08-15T20:08:07.540Z,81.00
2023-08-15T20:10:35.038Z,81.30
2023-08-15T20:13:02.488Z,82.30
2023-08-15T20:15:29.902Z,82.40
2023-08-15T20:17:57.354Z,83.70
2023-08-15T20:20:24.831Z,83.30
2023-08-15T20:22:52.346Z,84.30
2023-08-15T20:25:19.769Z,84.40
2023-08-15T20:27:47.214Z,84.40
2023-08-15T20:30:15.573Z,84.60
2023-08-15T20:32:43.030Z,84.80
2023-08-15T20:35:11.025Z,85.40
2023-08-15T20:37:39.189Z,85.60
2023-08-15T20:40:08.361Z,86.30
2023-08-15T20:42:36.803Z,87.10
2023-08-15T20:45:05.809Z,88.00
2023-08-15T20:47:33.572Z,88.10
2023-08-15T20:50:01.122Z,88.10
2023-08-15T20:52:28.727Z,88.10
2023-08-15T20:54:56.241Z,89.00
2023-08-15T20:57:23.802Z,88.80
2023-08-15T20:59:51.845Z,89.60
2023-08-15T21:02:19.507Z,88.90
2023-08-15T21:04:46.957Z,88.70
2023-08-15T21:07:14.477Z,89.10
2023-08-15T21:09:42.002Z,89.60
2023-08-15T21:12:09.659Z,88.80
2023-08-15T21:14:37.115Z,88.70
2023-08-15T21:17:04.573Z,88.90
2023-08-15T21:19:32.006Z,89.00
2023-08-15T21:21:59.474Z,89.10
2023-08-15T21:24:26.915Z,88.80
2023-08-15T21:26:54.445Z,89.00
2023-08-15T21:29:22.000Z,89.30
2023-08-15T21:31:50.825Z,89.40
2023-08-15T21:34:18.590Z,89.80
2023-08-15T21:36:46.104Z,90.00
2023-08-15T21:39:13.871Z,90.10
2023-08-15T21:41:41.291Z,89.90
2023-08-15T21:44:09.075Z,90.30
2023-08-15T21:46:36.701Z,90.60
2023-08-15T21:49:04.431Z,90.70
2023-08-15T21:51:31.893Z,90.60
2023-08-15T21:53:59.398Z,90.80
2023-08-15T21:56:30.356Z,90.60
2023-08-15T21:58:58.906Z,90.70
2023-08-15T22:01:26.557Z,91.00
2023-08-15T22:03:54.139Z,90.90
2023-08-15T22:06:21.947Z,91.00
2023-08-15T22:08:49.440Z,91.10
2023-08-15T22:11:16.860Z,91.00
2023-08-15T22:13:44.302Z,91.00
2023-08-15T22:16:11.825Z,91.10
2023-08-15T22:18:39.517Z,91.30
2023-08-15T22:21:07.011Z,91.20
2023-08-15T22:23:34.690Z,91.30
2023-08-15T22:26:02.273Z,91.20
2023-08-15T22:28:29.745Z,91.40
2023-08-15T22:30:57.233Z,91.30
2023-08-15T22:33:24.750Z,91.70
2023-08-15T22:35:52.249Z,91.90
2023-08-15T22:38:19.657Z,91.90
2023-08-15T22:40:47.151Z,91.80
2023-08-15T22:43:14.628Z,91.80
2023-08-15T22:45:46.107Z,91.90
2023-08-15T22:48:13.633Z,92.10
2023-08-15T22:50:41.352Z,92.40
2023-08-15T22:53:09.802Z,92.50
2023-08-15T22:55:37.327Z,92.50
2023-08-15T22:58:05.064Z,92.60
2023-08-15T23:00:32.517Z,92.80
2023-08-15T23:02:59.960Z,92.80
2023-08-15T23:05:27.428Z,92.80
2023-08-15T23:07:54.882Z,92.70
2023-08-15T23:10:22.344Z,92.60
2023-08-15T23:12:49.819Z,92.60
2023-08-15T23:15:17.415Z,92.70
2023-08-15T23:17:44.850Z,92.60
2023-08-15T23:20:13.191Z,92.80
2023-08-15T23:22:40.661Z,92.70
2023-08-15T23:25:09.788Z,92.70
2023-08-15T23:27:37.757Z,92.60
2023-08-15T23:30:07.371Z,92.70
2023-08-15T23:32:35.375Z,92.70
2023-08-15T23:35:02.848Z,92.40
2023-08-15T23:37:30.293Z,92.90
2023-08-15T23:39:58.262Z,93.40
2023-08-15T23:42:25.718Z,93.20
2023-08-15T23:44:53.240Z,93.60
2023-08-15T23:47:21.035Z,93.70
2023-08-15T23:49:49.230Z,93.60
2023-08-15T23:52:16.784Z,93.80
2023-08-15T23:54:44.236Z,93.80
2023-08-15T23:57:12.191Z,94.00
2023-08-15T23:59:39.624Z,94.10
